createdAt,value
2022-08-26T00:01:54.451Z,96.80
2022-08-26T00:04:23.834Z,97.30
2022-08-26T00:06:51.560Z,97.70
2022-08-26T00:09:19.164Z,98.40
2022-08-26T00:11:46.606Z,98.50
2022-08-26T00:14:15.893Z,99.00
2022-08-26T00:16:47.117Z,99.20
2022-08-26T00:19:20.197Z,99.00
2022-08-26T00:21:48.712Z,99.90
2022-08-26T00:24:17.088Z,99.90
2022-08-26T00:26:44.737Z,99.90
2022-08-26T00:29:12.372Z,99.90
2022-08-26T00:31:40.785Z,99.90
2022-08-26T00:34:09.576Z,99.90
2022-08-26T00:36:37.415Z,99.90
2022-08-26T00:39:07.579Z,99.90
2022-08-26T00:41:36.156Z,99.90
2022-08-26T00:44:03.656Z,99.90
2022-08-26T00:46:36.691Z,99.90
2022-08-26T00:49:12.232Z,99.90
2022-08-26T00:51:53.479Z,99.90
2022-08-26T00:54:23.869Z,99.90
2022-08-26T00:57:01.949Z,99.90
2022-08-26T00:59:32.698Z,99.90
2022-08-26T01:02:02.887Z,99.90
2022-08-26T01:04:31.587Z,99.90
2022-08-26T01:06:59.433Z,99.90
2022-08-26T01:09:27.145Z,99.90
2022-08-26T01:11:57.620Z,99.90
2022-08-26T01:14:29.836Z,99.90
2022-08-26T01:16:57.087Z,99.90
2022-08-26T01:19:31.010Z,99.90
2022-08-26T01:22:02.537Z,99.90
2022-08-26T01:24:31.013Z,99.90
2022-08-26T01:27:02.563Z,99.90
2022-08-26T01:29:31.592Z,99.90
2022-08-26T01:31:59.273Z,99.90
2022-08-26T01:34:32.899Z,99.90
2022-08-26T01:37:07.989Z,99.90
2022-08-26T01:39:41.165Z,99.90
2022-08-26T01:42:12.445Z,99.90
2022-08-26T01:44:57.406Z,99.90
2022-08-26T01:47:27.033Z,99.90
2022-08-26T01:50:00.041Z,99.90
2022-08-26T01:52:30.308Z,99.90
2022-08-26T01:54:59.034Z,99.90
2022-08-26T01:57:27.556Z,99.90
2022-08-26T01:59:58.599Z,99.90
2022-08-26T02:02:26.404Z,99.90
2022-08-26T02:04:59.880Z,99.90
2022-08-26T02:07:28.106Z,99.90
2022-08-26T02:09:55.302Z,99.90
2022-08-26T02:12:23.016Z,99.90
2022-08-26T02:14:54.186Z,99.90
2022-08-26T02:17:26.622Z,99.90
2022-08-26T02:19:53.890Z,99.90
2022-08-26T02:22:22.902Z,99.90
2022-08-26T02:24:57.879Z,99.90
2022-08-26T02:27:33.628Z,99.90
2022-08-26T02:30:17.847Z,99.90
2022-08-26T02:32:45.505Z,99.90
2022-08-26T02:35:18.326Z,99.90
2022-08-26T02:37:49.485Z,99.90
2022-08-26T02:40:19.191Z,99.90
2022-08-26T02:42:46.326Z,99.90
2022-08-26T02:45:13.626Z,99.90
2022-08-26T02:47:51.676Z,99.90
2022-08-26T02:50:20.643Z,99.90
2022-08-26T02:52:48.522Z,99.90
2022-08-26T02:55:16.290Z,99.90
2022-08-26T02:57:43.901Z,99.90
2022-08-26T03:00:14.755Z,99.90
2022-08-26T03:02:41.800Z,99.90
2022-08-26T03:05:10.414Z,99.90
2022-08-26T03:07:37.821Z,99.90
2022-08-26T03:10:08.693Z,99.90
2022-08-26T03:12:37.153Z,99.90
2022-08-26T03:15:16.420Z,99.90
2022-08-26T03:17:47.021Z,99.90
2022-08-26T03:20:15.618Z,99.90
2022-08-26T03:22:44.803Z,99.90
2022-08-26T03:25:14.921Z,99.90
2022-08-26T03:27:43.002Z,99.90
2022-08-26T03:30:38.554Z,99.90
2022-08-26T03:33:13.096Z,99.90
2022-08-26T03:35:41.801Z,99.90
2022-08-26T03:38:09.277Z,99.90
2022-08-26T03:40:38.022Z,99.90
2022-08-26T03:43:06.521Z,99.90
2022-08-26T03:45:37.851Z,99.90
2022-08-26T03:48:05.644Z,99.90
2022-08-26T03:50:34.138Z,99.90
2022-08-26T03:53:01.971Z,99.90
2022-08-26T03:55:32.140Z,99.90
2022-08-26T03:57:59.530Z,99.90
2022-08-26T04:00:27.132Z,99.90
2022-08-26T04:02:54.442Z,99.90
2022-08-26T04:05:23.106Z,99.90
2022-08-26T04:07:50.616Z,99.90
2022-08-26T04:10:29.049Z,99.90
2022-08-26T04:12:58.852Z,99.90
2022-08-26T04:15:27.063Z,99.90
2022-08-26T04:17:54.505Z,99.90
2022-08-26T04:20:23.178Z,99.90
2022-08-26T04:22:51.097Z,99.90
2022-08-26T04:25:18.717Z,99.90
2022-08-26T04:27:48.185Z,99.90
2022-08-26T04:30:16.682Z,99.90
2022-08-26T04:32:44.056Z,99.90
2022-08-26T04:35:11.195Z,99.90
2022-08-26T04:37:38.267Z,99.90
2022-08-26T04:40:06.679Z,99.90
2022-08-26T04:42:34.302Z,99.90
2022-08-26T04:45:02.019Z,99.90
2022-08-26T04:47:33.071Z,99.90
2022-08-26T04:50:00.194Z,99.90
2022-08-26T04:52:29.099Z,99.90
2022-08-26T04:54:58.002Z,99.90
2022-08-26T04:57:25.040Z,99.90
2022-08-26T04:59:53.267Z,99.90
2022-08-26T05:02:20.269Z,99.90
2022-08-26T05:04:47.272Z,99.90
2022-08-26T05:07:14.280Z,99.90
2022-08-26T05:09:45.255Z,99.90
2022-08-26T05:12:12.299Z,99.90
2022-08-26T05:14:41.601Z,99.90
2022-08-26T05:17:09.303Z,99.90
2022-08-26T05:19:43.072Z,99.90
2022-08-26T05:22:10.272Z,99.90
2022-08-26T05:24:41.211Z,99.90
2022-08-26T05:27:11.807Z,99.90
2022-08-26T05:29:39.414Z,99.90
2022-08-26T05:32:06.905Z,99.90
2022-08-26T05:34:34.398Z,99.90
2022-08-26T05:37:02.065Z,99.90
2022-08-26T05:39:29.423Z,99.90
2022-08-26T05:41:56.478Z,99.90
2022-08-26T05:44:23.885Z,99.90
2022-08-26T05:46:51.850Z,99.90
2022-08-26T05:49:19.941Z,99.90
2022-08-26T05:51:49.545Z,99.90
2022-08-26T05:54:21.365Z,99.90
2022-08-26T05:56:52.816Z,99.90
2022-08-26T05:59:24.066Z,99.90
2022-08-26T06:01:53.114Z,99.90
2022-08-26T06:04:20.282Z,99.90
2022-08-26T06:06:47.502Z,99.90
2022-08-26T06:09:14.926Z,99.90
2022-08-26T06:11:45.496Z,99.90
2022-08-26T06:14:12.664Z,99.90
2022-08-26T06:16:43.904Z,99.90
2022-08-26T06:19:13.742Z,99.90
2022-08-26T06:21:45.065Z,99.90
2022-08-26T06:24:32.532Z,99.90
2022-08-26T06:27:05.649Z,99.90
2022-08-26T06:29:34.955Z,99.90
2022-08-26T06:32:03.883Z,99.90
2022-08-26T06:34:31.071Z,99.90
2022-08-26T06:37:02.798Z,99.90
2022-08-26T06:39:31.634Z,99.90
2022-08-26T06:42:00.160Z,99.90
2022-08-26T06:44:27.885Z,99.90
2022-08-26T06:46:55.429Z,99.90
2022-08-26T06:49:26.880Z,99.90
2022-08-26T06:51:55.407Z,99.90
2022-08-26T06:54:22.513Z,99.90
2022-08-26T06:56:49.767Z,99.90
2022-08-26T06:59:16.777Z,99.90
2022-08-26T07:01:45.422Z,99.90
2022-08-26T07:04:15.455Z,99.90
2022-08-26T07:06:47.135Z,99.60
2022-08-26T07:09:14.572Z,98.70
2022-08-26T07:11:42.295Z,97.60
2022-08-26T07:14:09.423Z,96.60
2022-08-26T07:16:36.496Z,96.10
2022-08-26T07:19:10.762Z,94.60
2022-08-26T07:21:41.574Z,92.30
2022-08-26T07:24:11.027Z,91.80
2022-08-26T07:26:39.118Z,91.20
2022-08-26T07:29:12.525Z,91.50
2022-08-26T07:31:42.850Z,92.80
2022-08-26T07:34:11.355Z,92.10
2022-08-26T07:36:41.838Z,91.20
2022-08-26T07:39:09.001Z,89.90
2022-08-26T07:41:36.655Z,88.00
2022-08-26T07:44:04.331Z,85.40
2022-08-26T07:46:31.730Z,86.20
2022-08-26T07:48:59.339Z,87.30
2022-08-26T07:51:27.322Z,86.00
2022-08-26T07:53:55.417Z,83.60
2022-08-26T07:56:23.413Z,83.20
2022-08-26T07:58:52.238Z,82.20
2022-08-26T08:01:21.148Z,78.80
2022-08-26T08:03:51.556Z,77.10
2022-08-26T08:06:20.515Z,74.10
2022-08-26T08:08:50.791Z,75.10
2022-08-26T08:11:23.327Z,70.20
2022-08-26T08:13:56.059Z,71.50
2022-08-26T08:16:26.016Z,73.10
2022-08-26T08:18:53.566Z,69.70
2022-08-26T08:21:23.654Z,70.00
2022-08-26T08:23:53.508Z,69.10
2022-08-26T08:26:21.393Z,66.20
2022-08-26T08:28:48.630Z,67.40
2022-08-26T08:34:22.589Z,64.40
2022-08-26T08:36:53.392Z,65.90
2022-08-26T08:39:20.813Z,65.10
2022-08-26T08:42:23.805Z,64.80
2022-08-26T08:44:55.653Z,62.50
2022-08-26T08:47:36.034Z,59.70
2022-08-26T08:50:27.389Z,60.40
2022-08-26T08:53:34.890Z,62.30
2022-08-26T08:56:21.330Z,58.70
2022-08-26T08:59:38.573Z,56.90
2022-08-26T09:02:36.087Z,54.10
2022-08-26T09:05:28.187Z,51.50
2022-08-26T09:08:19.861Z,50.90
2022-08-26T09:10:59.645Z,48.40
2022-08-26T09:13:28.411Z,46.40
2022-08-26T09:16:15.890Z,46.10
2022-08-26T09:19:19.005Z,44.50
2022-08-26T09:21:46.490Z,45.00
2022-08-26T09:24:20.598Z,44.20
2022-08-26T09:26:49.774Z,42.50
2022-08-26T09:29:29.654Z,41.40
2022-08-26T09:32:22.161Z,40.10
2022-08-26T09:34:56.457Z,40.40
2022-08-26T09:40:35.384Z,40.50
2022-08-26T09:43:16.150Z,39.60
2022-08-26T09:46:09.524Z,37.80
2022-08-26T09:48:43.087Z,37.60
2022-08-26T09:51:42.546Z,36.10
2022-08-26T09:54:30.355Z,36.40
2022-08-26T09:57:19.255Z,34.90
2022-08-26T09:59:46.672Z,34.70
2022-08-26T10:02:37.881Z,36.40
2022-08-26T10:07:47.203Z,46.20
2022-08-26T10:10:39.976Z,47.30
2022-08-26T10:13:14.018Z,46.50
2022-08-26T10:16:28.581Z,46.00
2022-08-26T10:19:22.360Z,46.40
2022-08-26T10:22:01.917Z,46.40
2022-08-26T10:24:34.995Z,46.60
2022-08-26T10:27:28.719Z,46.10
2022-08-26T10:30:04.214Z,35.60
2022-08-26T10:33:02.237Z,36.90
2022-08-26T10:35:30.910Z,36.10
2022-08-26T10:38:16.277Z,35.70
2022-08-26T10:44:03.591Z,36.40
2022-08-26T10:46:50.265Z,35.60
2022-08-26T10:49:19.071Z,34.80
2022-08-26T10:52:16.337Z,34.10
2022-08-26T10:55:26.919Z,32.90
2022-08-26T10:58:07.305Z,33.00
2022-08-26T11:01:10.587Z,33.40
2022-08-26T11:04:48.111Z,32.70
2022-08-26T11:07:57.214Z,35.20
2022-08-26T11:11:09.312Z,34.60
2022-08-26T11:13:59.159Z,36.30
2022-08-26T11:16:57.509Z,34.30
2022-08-26T11:20:02.026Z,34.10
2022-08-26T11:22:36.345Z,35.00
2022-08-26T11:25:06.726Z,36.00
2022-08-26T11:27:54.391Z,35.80
2022-08-26T11:30:43.036Z,35.70
2022-08-26T11:33:31.253Z,36.10
2022-08-26T11:35:58.427Z,35.60
2022-08-26T11:38:29.552Z,35.80
2022-08-26T11:41:11.455Z,35.80
2022-08-26T11:43:40.661Z,35.70
2022-08-26T11:46:12.523Z,36.40
2022-08-26T11:48:43.978Z,36.40
2022-08-26T11:51:24.049Z,35.30
2022-08-26T11:53:51.375Z,35.30
2022-08-26T11:56:28.820Z,33.30
2022-08-26T11:59:02.277Z,33.20
2022-08-26T12:01:50.570Z,33.10
2022-08-26T12:04:37.857Z,31.20
2022-08-26T12:07:08.780Z,31.70
2022-08-26T12:09:50.191Z,32.90
2022-08-26T12:12:35.145Z,32.40
2022-08-26T12:15:24.167Z,32.90
2022-08-26T12:17:54.471Z,30.80
2022-08-26T12:20:48.186Z,30.90
2022-08-26T12:23:46.070Z,30.60
2022-08-26T12:26:27.002Z,31.40
2022-08-26T12:29:00.707Z,32.90
2022-08-26T12:31:33.755Z,33.70
2022-08-26T12:34:04.253Z,33.90
2022-08-26T12:36:37.948Z,31.10
2022-08-26T12:39:16.213Z,30.30
2022-08-26T12:41:50.093Z,31.90
2022-08-26T12:49:39.694Z,51.40
2022-08-26T13:02:45.943Z,29.90
2022-08-26T13:08:11.109Z,31.40
2022-08-26T13:10:41.106Z,32.20
2022-08-26T13:13:08.311Z,30.50
2022-08-26T13:15:35.570Z,30.70
2022-08-26T13:18:03.466Z,31.10
2022-08-26T13:20:30.737Z,31.80
2022-08-26T13:22:59.333Z,30.90
2022-08-26T13:25:27.209Z,31.30
2022-08-26T13:27:55.335Z,30.30
2022-08-26T13:30:22.489Z,30.60
2022-08-26T13:32:52.362Z,31.50
2022-08-26T13:35:20.475Z,31.00
2022-08-26T13:37:47.544Z,30.70
2022-08-26T13:40:14.719Z,31.40
2022-08-26T13:42:49.521Z,31.80
2022-08-26T13:45:17.430Z,30.10
2022-08-26T13:47:44.723Z,32.00
2022-08-26T13:50:11.815Z,33.00
2022-08-26T13:52:38.840Z,33.00
2022-08-26T14:02:36.121Z,32.80
2022-08-26T14:05:03.219Z,33.90
2022-08-26T14:07:30.319Z,34.00
2022-08-26T14:09:57.996Z,34.90
2022-08-26T14:12:25.393Z,34.70
2022-08-26T14:14:52.458Z,33.50
2022-08-26T14:17:22.213Z,34.10
2022-08-26T14:19:50.573Z,34.80
2022-08-26T14:22:19.846Z,35.60
2022-08-26T14:32:17.321Z,51.00
2022-08-26T14:34:48.771Z,36.90
2022-08-26T14:37:16.141Z,36.40
2022-08-26T14:42:11.755Z,37.40
2022-08-26T14:44:45.961Z,41.30
2022-08-26T14:47:13.309Z,41.10
2022-08-26T14:49:40.611Z,42.10
2022-08-26T14:52:07.939Z,43.40
2022-08-26T14:54:35.286Z,43.20
2022-08-26T14:57:05.606Z,44.20
2022-08-26T15:04:35.175Z,91.90
2022-08-26T15:07:03.718Z,48.10
2022-08-26T15:09:33.551Z,48.70
2022-08-26T15:12:01.567Z,49.50
2022-08-26T15:14:32.821Z,49.90
2022-08-26T15:17:00.599Z,50.10
2022-08-26T15:19:28.224Z,50.40
2022-08-26T15:21:55.412Z,49.50
2022-08-26T15:24:25.143Z,49.40
2022-08-26T15:26:53.664Z,50.10
2022-08-26T15:29:24.005Z,50.50
2022-08-26T15:31:51.613Z,52.10
2022-08-26T15:36:50.248Z,52.30
2022-08-26T15:39:17.667Z,74.10
2022-08-26T15:41:45.638Z,53.90
2022-08-26T15:44:14.413Z,54.50
2022-08-26T15:46:42.186Z,55.10
2022-08-26T15:51:46.234Z,56.20
2022-08-26T15:54:16.078Z,56.80
2022-08-26T16:04:06.847Z,58.10
2022-08-26T16:06:36.876Z,70.50
2022-08-26T16:09:06.406Z,59.60
2022-08-26T16:11:34.621Z,59.40
2022-08-26T16:14:02.206Z,59.30
2022-08-26T16:16:29.311Z,59.80
2022-08-26T16:18:56.457Z,60.00
2022-08-26T16:23:52.343Z,60.00
2022-08-26T16:26:22.493Z,61.20
2022-08-26T16:28:49.660Z,61.60
2022-08-26T16:31:17.256Z,62.00
2022-08-26T16:33:44.426Z,61.70
2022-08-26T16:36:12.196Z,61.70
2022-08-26T17:43:16.790Z,65.40
2022-08-26T17:48:12.055Z,66.90
2022-08-26T17:50:41.424Z,67.50
2022-08-26T17:53:08.980Z,67.80
2022-08-26T17:55:41.863Z,68.80
2022-08-26T17:58:14.582Z,69.30
2022-08-26T18:00:47.151Z,70.60
2022-08-26T18:03:14.335Z,70.00
2022-08-26T18:05:42.668Z,80.30
2022-08-26T18:08:10.009Z,75.30
2022-08-26T18:10:37.147Z,76.30
2022-08-26T18:13:04.168Z,77.40
2022-08-26T18:15:31.308Z,81.60
2022-08-26T18:17:58.394Z,91.10
2022-08-26T18:20:25.546Z,91.60
2022-08-26T18:22:53.929Z,93.10
2022-08-26T18:25:21.317Z,93.30
2022-08-26T18:27:48.356Z,90.10
2022-08-26T18:35:12.520Z,92.20
2022-08-26T18:37:40.615Z,92.70
2022-08-26T18:40:11.317Z,93.00
2022-08-26T18:42:38.644Z,93.50
2022-08-26T18:45:07.577Z,93.70
2022-08-26T18:47:34.944Z,94.50
2022-08-26T18:52:31.814Z,95.90
2022-08-26T18:54:59.544Z,96.60
2022-08-26T18:57:26.587Z,97.40
2022-08-26T18:59:53.619Z,99.30
2022-08-26T19:02:20.758Z,99.90
2022-08-26T19:04:47.862Z,99.90
2022-08-26T19:09:42.308Z,99.90
2022-08-26T19:12:09.634Z,99.90
2022-08-26T19:14:36.985Z,99.90
2022-08-26T19:17:05.665Z,99.90
2022-08-26T19:19:33.256Z,99.90
2022-08-26T19:22:00.744Z,99.90
2022-08-26T19:24:28.524Z,99.90
2022-08-26T19:26:58.350Z,99.90
2022-08-26T19:29:28.276Z,99.90
2022-08-26T19:31:55.692Z,99.90
2022-08-26T19:34:23.104Z,99.90
2022-08-26T19:36:51.854Z,99.90
2022-08-26T19:39:19.619Z,99.90
2022-08-26T19:41:47.241Z,99.90
2022-08-26T19:49:42.668Z,99.90
2022-08-26T19:52:11.515Z,99.90
2022-08-26T21:19:16.293Z,99.90
2022-08-26T21:21:44.575Z,99.90
2022-08-26T21:24:12.267Z,99.90
2022-08-26T21:26:39.479Z,99.90
2022-08-26T21:29:09.666Z,99.90
2022-08-26T21:31:42.249Z,99.90
2022-08-26T21:34:13.381Z,99.90
2022-08-26T21:36:40.422Z,99.90
2022-08-26T21:39:11.531Z,99.90
2022-08-26T21:41:40.597Z,99.90
2022-08-26T21:44:08.221Z,99.90
2022-08-26T21:46:37.683Z,99.90
2022-08-26T21:49:07.602Z,99.90
2022-08-26T21:51:40.964Z,99.90
2022-08-26T21:54:11.023Z,99.90
2022-08-26T21:56:42.236Z,99.90
2022-08-26T21:59:09.489Z,99.90
2022-08-26T22:01:37.772Z,99.90
2022-08-26T22:04:07.284Z,99.90
2022-08-26T22:06:40.662Z,99.90
2022-08-26T22:09:08.042Z,99.90
2022-08-26T22:11:35.223Z,99.90
2022-08-26T22:14:02.313Z,99.90
2022-08-26T22:16:29.365Z,99.90
2022-08-26T22:18:56.563Z,99.90
2022-08-26T22:21:26.105Z,99.90
2022-08-26T22:23:56.176Z,99.90
2022-08-26T22:26:29.137Z,99.90
2022-08-26T22:28:59.138Z,99.90
2022-08-26T22:31:37.577Z,99.90
2022-08-26T22:34:08.520Z,99.90
2022-08-26T22:36:37.411Z,99.90
2022-08-26T22:39:11.410Z,99.90
2022-08-26T22:41:38.579Z,99.90
2022-08-26T22:44:05.728Z,99.90
2022-08-26T22:46:34.892Z,99.90
2022-08-26T22:49:04.494Z,99.90
2022-08-26T22:51:32.014Z,99.90
2022-08-26T22:53:59.261Z,99.90
2022-08-26T22:56:26.384Z,99.90
2022-08-26T22:58:53.490Z,99.90
2022-08-26T23:01:20.562Z,99.90
2022-08-26T23:03:47.835Z,99.90
2022-08-26T23:06:15.017Z,99.90
2022-08-26T23:08:45.270Z,99.90
2022-08-26T23:11:13.357Z,99.90
2022-08-26T23:13:41.066Z,99.90
2022-08-26T23:16:11.133Z,99.90
2022-08-26T23:18:39.069Z,99.90
2022-08-26T23:21:06.688Z,99.90
2022-08-26T23:23:33.892Z,99.90
2022-08-26T23:26:05.578Z,99.90
2022-08-26T23:28:33.728Z,99.90
2022-08-26T23:31:00.874Z,99.90
2022-08-26T23:33:47.936Z,99.90
2022-08-26T23:36:17.966Z,99.90
2022-08-26T23:38:52.389Z,99.90
2022-08-26T23:41:22.015Z,99.90
2022-08-26T23:43:49.586Z,99.90
2022-08-26T23:46:16.732Z,99.90
2022-08-26T23:48:44.195Z,99.90
2022-08-26T23:51:29.981Z,99.90
2022-08-26T23:53:58.024Z,99.90
2022-08-26T23:56:26.751Z,99.90
2022-08-26T23:58:54.396Z,99.90
